createdAt,value
2016-09-16T00:00:42.050Z,0
2016-09-16T00:01:42.178Z,0
2016-09-16T00:02:42.026Z,0
2016-09-16T00:03:42.045Z,0
2016-09-16T00:04:42.030Z,0
2016-09-16T00:05:42.361Z,0
2016-09-16T00:06:42.023Z,0
2016-09-16T00:07:42.044Z,0
2016-09-16T00:08:42.021Z,0
2016-09-16T00:09:42.014Z,0
2016-09-16T00:10:42.559Z,0
2016-09-16T00:11:42.023Z,0
2016-09-16T00:12:41.999Z,0
2016-09-16T00:13:41.986Z,0
2016-09-16T00:14:41.986Z,0
2016-09-16T00:15:41.975Z,0
2016-09-16T00:16:41.975Z,0
2016-09-16T00:17:42.006Z,0
2016-09-16T00:18:41.977Z,0
2016-09-16T00:19:42.155Z,0
2016-09-16T00:20:41.950Z,0
2016-09-16T00:21:41.943Z,0
2016-09-16T00:22:41.966Z,0
2016-09-16T00:23:41.940Z,0
2016-09-16T00:24:41.953Z,0
2016-09-16T00:25:41.932Z,0
2016-09-16T00:26:41.950Z,0
2016-09-16T00:27:41.925Z,0
2016-09-16T00:28:42.808Z,0
2016-09-16T00:29:42.582Z,0
2016-09-16T00:30:42.130Z,0
2016-09-16T00:31:41.903Z,0
2016-09-16T00:32:42.319Z,0
2016-09-16T00:33:42.625Z,0
2016-09-16T00:34:42.826Z,0
2016-09-16T00:35:42.115Z,0
2016-09-16T00:36:41.904Z,0
2016-09-16T00:37:42.366Z,0
2016-09-16T00:38:41.899Z,0
2016-09-16T00:39:42.261Z,0
2016-09-16T00:40:42.012Z,0
2016-09-16T00:41:41.879Z,0
2016-09-16T00:42:41.875Z,0
2016-09-16T00:43:41.894Z,0
2016-09-16T00:44:41.868Z,0
2016-09-16T00:45:42.229Z,0
2016-09-16T00:46:41.850Z,0
2016-09-16T00:47:41.882Z,0
2016-09-16T00:48:42.420Z,0
2016-09-16T00:49:56.706Z,0
2016-09-16T00:50:41.846Z,0
2016-09-16T00:51:41.843Z,0
2016-09-16T00:52:41.835Z,0
2016-09-16T00:53:41.821Z,0
2016-09-16T00:54:41.847Z,0
2016-09-16T00:55:41.800Z,0
2016-09-16T00:56:41.799Z,0
2016-09-16T00:57:42.194Z,0
2016-09-16T00:58:42.213Z,0
2016-09-16T00:59:41.797Z,0
2016-09-16T01:00:41.815Z,0
2016-09-16T01:01:42.330Z,0
2016-09-16T01:02:41.807Z,0
2016-09-16T01:03:41.793Z,0
2016-09-16T01:04:42.000Z,0
2016-09-16T01:05:42.308Z,0
2016-09-16T01:06:41.785Z,0
2016-09-16T01:07:41.769Z,0
2016-09-16T01:08:41.764Z,0
2016-09-16T01:09:41.771Z,0
2016-09-16T01:10:41.782Z,0
2016-09-16T01:11:41.748Z,0
2016-09-16T01:12:42.170Z,0
2016-09-16T01:13:41.769Z,0
2016-09-16T01:14:41.747Z,0
2016-09-16T01:15:41.740Z,0
2016-09-16T01:16:41.779Z,0
2016-09-16T01:17:41.734Z,0
2016-09-16T01:18:41.740Z,0
2016-09-16T01:19:41.744Z,0
2016-09-16T01:20:41.761Z,0
2016-09-16T01:21:42.327Z,0
2016-09-16T01:22:41.735Z,0
2016-09-16T01:23:41.690Z,0
2016-09-16T01:24:41.731Z,0
2016-09-16T01:25:41.741Z,0
2016-09-16T01:26:42.013Z,0
2016-09-16T01:27:41.697Z,0
2016-09-16T01:28:41.683Z,0
2016-09-16T01:29:41.682Z,0
2016-09-16T01:30:41.684Z,0
2016-09-16T01:31:41.888Z,0
2016-09-16T01:32:41.682Z,0
2016-09-16T01:33:41.992Z,0
2016-09-16T01:34:41.672Z,0
2016-09-16T01:35:41.653Z,0
2016-09-16T01:36:41.673Z,0
2016-09-16T01:37:41.866Z,0
2016-09-16T01:38:41.634Z,0
2016-09-16T01:39:41.642Z,0
2016-09-16T01:40:41.644Z,0
2016-09-16T01:41:41.633Z,0
2016-09-16T01:42:41.675Z,0
2016-09-16T01:43:41.637Z,0
2016-09-16T01:44:44.690Z,0
2016-09-16T01:45:41.628Z,0
2016-09-16T01:46:41.633Z,0
2016-09-16T01:47:41.605Z,0
2016-09-16T01:48:41.609Z,0
2016-09-16T01:49:41.606Z,0
2016-09-16T01:50:41.596Z,0
2016-09-16T01:51:41.593Z,0
2016-09-16T01:52:41.586Z,0
2016-09-16T01:53:41.584Z,0
2016-09-16T01:54:56.460Z,0
2016-09-16T01:55:41.586Z,0
2016-09-16T01:56:41.565Z,0
2016-09-16T01:57:41.562Z,0
2016-09-16T01:58:41.585Z,0
2016-09-16T01:59:41.570Z,0
2016-09-16T02:00:41.769Z,0
2016-09-16T02:01:41.862Z,0
2016-09-16T02:02:41.549Z,0
2016-09-16T02:03:41.549Z,0
2016-09-16T02:04:41.554Z,0
2016-09-16T02:05:41.775Z,0
2016-09-16T02:06:41.531Z,0
2016-09-16T02:07:41.537Z,0
2016-09-16T02:08:41.710Z,0
2016-09-16T02:09:41.522Z,0
2016-09-16T02:10:41.870Z,0
2016-09-16T02:11:41.743Z,0
2016-09-16T02:13:41.492Z,0
2016-09-16T02:14:41.498Z,0
2016-09-16T02:15:41.485Z,0
2016-09-16T02:16:41.505Z,0
2016-09-16T02:17:41.478Z,0
2016-09-16T02:18:41.503Z,0
2016-09-16T02:19:41.483Z,0
2016-09-16T02:20:41.501Z,0
2016-09-16T02:21:41.475Z,0
2016-09-16T02:22:41.679Z,0
2016-09-16T02:23:41.538Z,0
2016-09-16T02:24:41.457Z,0
2016-09-16T02:25:41.455Z,0
2016-09-16T02:26:41.464Z,0
2016-09-16T02:27:41.490Z,0
2016-09-16T02:28:41.431Z,0
2016-09-16T02:29:41.473Z,0
2016-09-16T02:30:41.437Z,0
2016-09-16T02:31:41.421Z,0
2016-09-16T02:32:41.405Z,0
2016-09-16T02:33:41.410Z,0
2016-09-16T02:34:41.413Z,0
2016-09-16T02:35:41.438Z,0
2016-09-16T02:36:41.403Z,0
2016-09-16T02:37:41.393Z,0
2016-09-16T02:38:41.614Z,0
2016-09-16T02:39:41.385Z,0
2016-09-16T02:40:41.374Z,0
2016-09-16T02:41:41.376Z,0
2016-09-16T02:42:41.368Z,0
2016-09-16T02:43:41.384Z,0
2016-09-16T02:44:41.594Z,0
2016-09-16T02:45:41.347Z,0
2016-09-16T02:46:41.664Z,0
2016-09-16T02:47:41.562Z,0
2016-09-16T02:48:41.340Z,0
2016-09-16T02:49:41.332Z,0
2016-09-16T02:50:41.331Z,0
2016-09-16T02:51:41.324Z,0
2016-09-16T02:52:41.342Z,0
2016-09-16T02:53:41.316Z,0
2016-09-16T02:54:41.309Z,0
2016-09-16T02:55:41.309Z,0
2016-09-16T02:56:41.320Z,0
2016-09-16T02:57:41.298Z,0
2016-09-16T02:58:41.292Z,0
2016-09-16T02:59:41.310Z,0
2016-09-16T03:00:41.289Z,0
2016-09-16T03:01:41.613Z,0
2016-09-16T03:02:41.330Z,0
2016-09-16T03:03:41.273Z,0
2016-09-16T03:04:41.276Z,0
2016-09-16T03:05:41.603Z,0
2016-09-16T03:06:41.250Z,0
2016-09-16T03:07:41.281Z,0
2016-09-16T03:08:41.258Z,0
2016-09-16T03:09:41.249Z,0
2016-09-16T03:10:41.248Z,0
2016-09-16T03:11:41.233Z,0
2016-09-16T03:12:41.233Z,0
2016-09-16T03:13:42.201Z,0
2016-09-16T03:14:41.223Z,0
2016-09-16T03:15:41.218Z,0
2016-09-16T03:16:41.218Z,0
2016-09-16T03:17:41.223Z,0
2016-09-16T03:18:41.206Z,0
2016-09-16T03:19:41.214Z,0
2016-09-16T03:20:41.191Z,0
2016-09-16T03:21:41.198Z,0
2016-09-16T03:22:41.204Z,0
2016-09-16T03:23:41.186Z,0
2016-09-16T03:24:41.178Z,0
2016-09-16T03:25:41.175Z,0
2016-09-16T03:26:41.161Z,0
2016-09-16T03:27:41.172Z,0
2016-09-16T03:28:41.169Z,0
2016-09-16T03:29:41.488Z,0
2016-09-16T03:30:41.163Z,0
2016-09-16T03:31:41.160Z,0
2016-09-16T03:32:41.464Z,0
2016-09-16T03:33:41.137Z,0
2016-09-16T03:34:41.150Z,0
2016-09-16T03:35:41.136Z,0
2016-09-16T03:36:41.150Z,0
2016-09-16T03:37:41.463Z,0
2016-09-16T03:38:41.138Z,0
2016-09-16T03:39:41.750Z,0
2016-09-16T03:40:41.445Z,0
2016-09-16T03:41:41.100Z,0
2016-09-16T03:42:41.105Z,0
2016-09-16T03:43:41.108Z,0
2016-09-16T03:44:41.418Z,0
2016-09-16T03:45:41.400Z,0
2016-09-16T03:46:41.107Z,0
2016-09-16T03:47:41.413Z,0
2016-09-16T03:48:41.399Z,0
2016-09-16T03:49:41.378Z,0
2016-09-16T03:50:41.137Z,0
2016-09-16T03:51:41.063Z,0
2016-09-16T03:52:41.377Z,0
2016-09-16T03:53:41.374Z,0
2016-09-16T03:54:41.364Z,0
2016-09-16T03:55:41.059Z,0
2016-09-16T03:56:41.048Z,0
2016-09-16T03:57:41.052Z,0
2016-09-16T03:58:41.353Z,0
2016-09-16T03:59:41.014Z,0
2016-09-16T04:00:41.024Z,0
2016-09-16T04:01:41.005Z,0
2016-09-16T04:02:41.006Z,0
2016-09-16T04:03:41.322Z,0
2016-09-16T04:04:41.001Z,0
2016-09-16T04:05:41.352Z,0
2016-09-16T04:06:41.007Z,0
2016-09-16T04:07:40.977Z,0
2016-09-16T04:08:40.987Z,0
2016-09-16T04:09:40.990Z,0
2016-09-16T04:10:40.973Z,0
2016-09-16T04:11:40.978Z,0
2016-09-16T04:12:40.967Z,0
2016-09-16T04:13:40.964Z,0
2016-09-16T04:14:40.978Z,0
2016-09-16T04:15:40.955Z,0
2016-09-16T04:16:40.950Z,0
2016-09-16T04:17:40.949Z,0
2016-09-16T04:18:40.944Z,0
2016-09-16T04:19:40.945Z,0
2016-09-16T04:20:40.937Z,0
2016-09-16T04:21:40.944Z,0
2016-09-16T04:22:40.929Z,0
2016-09-16T04:23:40.950Z,0
2016-09-16T04:24:41.556Z,0
2016-09-16T04:25:40.920Z,0
2016-09-16T04:26:41.547Z,0
2016-09-16T04:27:40.894Z,0
2016-09-16T04:28:40.902Z,0
2016-09-16T04:29:41.219Z,0
2016-09-16T04:30:40.898Z,0
2016-09-16T04:31:40.887Z,0
2016-09-16T04:32:41.214Z,0
2016-09-16T04:33:40.875Z,0
2016-09-16T04:34:40.884Z,0
2016-09-16T04:35:40.871Z,0
2016-09-16T04:36:40.880Z,0
2016-09-16T04:37:40.863Z,0
2016-09-16T04:38:40.865Z,0
2016-09-16T04:39:40.861Z,0
2016-09-16T04:40:40.859Z,0
2016-09-16T04:41:40.827Z,0
2016-09-16T04:42:40.833Z,0
2016-09-16T04:43:40.822Z,5
2016-09-16T04:44:40.829Z,5
2016-09-16T04:45:40.822Z,5
2016-09-16T04:46:40.831Z,5
2016-09-16T04:47:41.125Z,5
2016-09-16T04:48:40.821Z,5
2016-09-16T04:49:40.817Z,5
2016-09-16T04:50:40.783Z,5
2016-09-16T04:51:40.795Z,10
2016-09-16T04:52:40.783Z,10
2016-09-16T04:53:40.789Z,10
2016-09-16T04:54:40.791Z,10
2016-09-16T04:55:40.763Z,10
2016-09-16T04:56:40.778Z,10
2016-09-16T04:57:40.773Z,15
2016-09-16T04:58:40.785Z,15
2016-09-16T04:59:40.756Z,15
2016-09-16T05:00:40.758Z,15
2016-09-16T05:01:40.755Z,15
2016-09-16T05:02:40.737Z,20
2016-09-16T05:03:40.731Z,20
2016-09-16T05:04:40.745Z,20
2016-09-16T05:05:40.739Z,20
2016-09-16T05:06:40.741Z,20
2016-09-16T05:07:40.724Z,25
2016-09-16T05:08:40.722Z,25
2016-09-16T05:09:40.730Z,25
2016-09-16T05:10:41.015Z,25
2016-09-16T05:11:40.723Z,30
2016-09-16T05:12:40.697Z,30
2016-09-16T05:13:40.706Z,30
2016-09-16T05:14:40.708Z,30
2016-09-16T05:15:40.708Z,30
2016-09-16T05:16:40.678Z,35
2016-09-16T05:17:40.986Z,35
2016-09-16T05:18:41.001Z,35
2016-09-16T05:19:40.677Z,35
2016-09-16T05:20:40.666Z,40
2016-09-16T05:21:40.670Z,40
2016-09-16T05:22:40.657Z,40
2016-09-16T05:23:40.663Z,45
2016-09-16T05:24:40.978Z,45
2016-09-16T05:25:40.987Z,45
2016-09-16T05:26:40.650Z,45
2016-09-16T05:27:40.637Z,50
2016-09-16T05:28:40.630Z,50
2016-09-16T05:29:40.647Z,50
2016-09-16T05:30:40.611Z,50
2016-09-16T05:31:40.632Z,55
2016-09-16T05:32:40.639Z,55
2016-09-16T05:33:40.631Z,55
2016-09-16T05:34:40.605Z,55
2016-09-16T05:35:40.618Z,60
2016-09-16T05:36:40.609Z,60
2016-09-16T05:37:40.603Z,60
2016-09-16T05:38:40.590Z,60
2016-09-16T05:39:40.569Z,65
2016-09-16T05:40:40.599Z,65
2016-09-16T05:41:40.586Z,65
2016-09-16T05:42:40.586Z,65
2016-09-16T05:43:40.549Z,70
2016-09-16T05:44:40.560Z,70
2016-09-16T05:45:40.872Z,70
2016-09-16T05:46:40.868Z,70
2016-09-16T05:47:40.542Z,75
2016-09-16T05:48:40.539Z,75
2016-09-16T05:49:40.852Z,75
2016-09-16T05:50:40.556Z,75
2016-09-16T05:51:40.567Z,80
2016-09-16T05:52:40.828Z,80
2016-09-16T05:53:40.531Z,80
2016-09-16T05:54:40.513Z,80
2016-09-16T05:55:40.505Z,85
2016-09-16T05:56:40.508Z,85
2016-09-16T05:57:40.502Z,85
2016-09-16T05:58:40.498Z,85
2016-09-16T05:59:40.482Z,90
2016-09-16T06:00:40.493Z,90
2016-09-16T06:01:40.473Z,90
2016-09-16T06:02:40.472Z,90
2016-09-16T06:03:40.475Z,90
2016-09-16T06:04:40.474Z,95
2016-09-16T06:05:40.456Z,95
2016-09-16T06:06:40.461Z,95
2016-09-16T06:07:40.472Z,100
2016-09-16T06:08:40.438Z,100
2016-09-16T06:09:40.487Z,100
2016-09-16T06:10:40.442Z,105
2016-09-16T06:11:40.431Z,105
2016-09-16T06:12:40.430Z,105
2016-09-16T06:13:40.423Z,105
2016-09-16T06:14:40.419Z,105
2016-09-16T06:15:40.417Z,105
2016-09-16T06:16:40.432Z,105
2016-09-16T06:17:40.427Z,105
2016-09-16T06:18:40.446Z,110
2016-09-16T06:19:40.397Z,110
2016-09-16T06:20:40.401Z,110
2016-09-16T06:21:40.708Z,110
2016-09-16T06:22:40.386Z,110
2016-09-16T06:23:40.389Z,110
2016-09-16T06:24:40.387Z,110
2016-09-16T06:25:40.419Z,105
2016-09-16T06:26:40.388Z,110
2016-09-16T06:27:40.716Z,110
2016-09-16T06:28:40.383Z,110
2016-09-16T06:29:40.368Z,110
2016-09-16T06:30:40.357Z,110
2016-09-16T06:31:40.355Z,110
2016-09-16T06:32:40.683Z,115
2016-09-16T06:33:40.361Z,115
2016-09-16T06:34:40.345Z,115
2016-09-16T06:35:40.400Z,115
2016-09-16T06:36:40.351Z,115
2016-09-16T06:37:40.379Z,115
2016-09-16T06:38:40.327Z,120
2016-09-16T06:39:40.641Z,120
2016-09-16T06:40:40.329Z,120
2016-09-16T06:41:40.348Z,120
2016-09-16T06:42:40.318Z,120
2016-09-16T06:43:40.329Z,125
2016-09-16T06:44:40.305Z,125
2016-09-16T06:45:40.636Z,125
2016-09-16T06:46:40.306Z,125
2016-09-16T06:47:40.349Z,125
2016-09-16T06:48:40.283Z,130
2016-09-16T06:49:40.295Z,130
2016-09-16T06:50:40.283Z,130
2016-09-16T06:51:40.349Z,130
2016-09-16T06:52:40.286Z,130
2016-09-16T06:53:40.288Z,130
2016-09-16T06:54:40.279Z,135
2016-09-16T06:55:40.586Z,135
2016-09-16T06:56:40.580Z,135
2016-09-16T06:57:40.253Z,135
2016-09-16T06:58:40.271Z,135
2016-09-16T06:59:40.247Z,135
2016-09-16T07:00:40.259Z,135
2016-09-16T07:01:40.249Z,140
2016-09-16T07:02:40.255Z,140
2016-09-16T07:03:40.255Z,140
2016-09-16T07:04:40.247Z,140
2016-09-16T07:05:40.299Z,140
2016-09-16T07:06:40.231Z,140
2016-09-16T07:07:40.248Z,145
2016-09-16T07:08:40.226Z,145
2016-09-16T07:09:40.221Z,145
2016-09-16T07:10:40.227Z,145
2016-09-16T07:11:40.222Z,145
2016-09-16T07:12:40.223Z,150
2016-09-16T07:13:40.239Z,150
2016-09-16T07:14:40.206Z,150
2016-09-16T07:15:40.221Z,150
2016-09-16T07:16:40.208Z,150
2016-09-16T07:17:40.531Z,150
2016-09-16T07:18:40.210Z,150
2016-09-16T07:19:40.201Z,150
2016-09-16T07:20:40.208Z,150
2016-09-16T07:21:40.189Z,150
2016-09-16T07:22:40.193Z,150
2016-09-16T07:23:40.205Z,150
2016-09-16T07:24:40.204Z,150
2016-09-16T07:25:40.274Z,155
2016-09-16T07:26:40.270Z,155
2016-09-16T07:27:40.250Z,160
2016-09-16T07:28:40.167Z,155
2016-09-16T07:29:40.174Z,150
2016-09-16T07:30:40.181Z,150
2016-09-16T07:31:40.188Z,155
2016-09-16T07:32:40.186Z,150
2016-09-16T07:33:40.176Z,145
2016-09-16T07:34:40.179Z,150
2016-09-16T07:35:40.377Z,160
2016-09-16T07:36:40.222Z,170
2016-09-16T07:37:40.165Z,180
2016-09-16T07:38:40.168Z,190
2016-09-16T07:39:40.157Z,200
2016-09-16T07:40:40.180Z,195
2016-09-16T07:41:40.171Z,190
2016-09-16T07:42:40.143Z,200
2016-09-16T07:43:40.211Z,205
2016-09-16T07:44:40.154Z,205
2016-09-16T07:45:40.157Z,205
2016-09-16T07:46:40.159Z,205
2016-09-16T07:47:40.157Z,200
2016-09-16T07:48:40.145Z,200
2016-09-16T07:49:40.140Z,190
2016-09-16T07:50:40.146Z,190
2016-09-16T07:51:40.179Z,185
2016-09-16T07:52:40.136Z,185
2016-09-16T07:53:40.144Z,185
2016-09-16T07:54:40.123Z,180
2016-09-16T07:55:40.126Z,180
2016-09-16T07:56:40.135Z,180
2016-09-16T07:57:40.456Z,180
2016-09-16T07:58:40.125Z,175
2016-09-16T07:59:40.118Z,175
2016-09-16T08:00:40.121Z,175
2016-09-16T08:01:40.125Z,180
2016-09-16T08:02:40.135Z,180
2016-09-16T08:03:40.139Z,175
2016-09-16T08:04:40.147Z,175
2016-09-16T08:05:40.437Z,170
2016-09-16T08:06:40.119Z,170
2016-09-16T08:07:40.109Z,175
2016-09-16T08:08:40.120Z,180
2016-09-16T08:09:40.127Z,185
2016-09-16T08:10:40.137Z,185
2016-09-16T08:11:40.451Z,190
2016-09-16T08:12:40.106Z,190
2016-09-16T08:13:40.115Z,190
2016-09-16T08:14:40.113Z,195
2016-09-16T08:15:40.130Z,200
2016-09-16T08:16:40.130Z,200
2016-09-16T08:17:40.116Z,190
2016-09-16T08:18:40.117Z,190
2016-09-16T08:19:40.106Z,190
2016-09-16T08:20:40.106Z,185
2016-09-16T08:21:40.740Z,190
2016-09-16T08:22:40.121Z,185
2016-09-16T08:23:40.101Z,190
2016-09-16T08:24:40.263Z,195
2016-09-16T08:25:40.105Z,200
2016-09-16T08:26:40.086Z,205
2016-09-16T08:27:40.111Z,210
2016-09-16T08:28:40.111Z,215
2016-09-16T08:29:40.107Z,220
2016-09-16T08:30:40.122Z,215
2016-09-16T08:31:40.098Z,215
2016-09-16T08:32:40.108Z,215
2016-09-16T08:33:40.099Z,215
2016-09-16T08:34:40.106Z,210
2016-09-16T08:35:40.115Z,210
2016-09-16T08:36:40.104Z,210
2016-09-16T08:37:40.111Z,215
2016-09-16T08:38:40.112Z,215
2016-09-16T08:39:40.095Z,220
2016-09-16T08:40:40.091Z,220
2016-09-16T08:41:40.106Z,225
2016-09-16T08:42:40.105Z,225
2016-09-16T08:43:40.112Z,230
2016-09-16T08:44:40.109Z,230
2016-09-16T08:45:40.093Z,240
2016-09-16T08:46:40.089Z,240
2016-09-16T08:47:40.407Z,245
2016-09-16T08:48:40.102Z,250
2016-09-16T08:49:40.100Z,255
2016-09-16T08:50:40.094Z,260
2016-09-16T08:51:40.152Z,270
2016-09-16T08:52:40.114Z,270
2016-09-16T08:53:40.091Z,280
2016-09-16T08:54:40.097Z,285
2016-09-16T08:55:40.095Z,295
2016-09-16T08:56:40.110Z,305
2016-09-16T08:57:40.083Z,315
2016-09-16T08:58:40.095Z,325
2016-09-16T08:59:40.098Z,325
2016-09-16T09:00:40.113Z,325
2016-09-16T09:01:40.107Z,320
2016-09-16T09:02:40.108Z,320
2016-09-16T09:03:40.099Z,300
2016-09-16T09:04:40.110Z,290
2016-09-16T09:05:40.086Z,280
2016-09-16T09:06:40.110Z,275
2016-09-16T09:07:40.419Z,280
2016-09-16T09:08:40.091Z,280
2016-09-16T09:09:40.094Z,285
2016-09-16T09:10:40.498Z,285
2016-09-16T09:11:40.106Z,290
2016-09-16T09:12:40.080Z,295
2016-09-16T09:13:40.089Z,305
2016-09-16T09:14:40.100Z,310
2016-09-16T09:15:40.099Z,320
2016-09-16T09:16:40.113Z,330
2016-09-16T09:17:40.083Z,340
2016-09-16T09:18:40.126Z,355
2016-09-16T09:19:40.097Z,375
2016-09-16T09:20:40.098Z,395
2016-09-16T09:21:40.106Z,410
2016-09-16T09:22:40.110Z,430
2016-09-16T09:23:40.420Z,440
2016-09-16T09:24:40.104Z,435
2016-09-16T09:25:40.414Z,425
2016-09-16T09:26:40.116Z,415
2016-09-16T09:27:40.107Z,395
2016-09-16T09:28:40.092Z,385
2016-09-16T09:29:40.096Z,380
2016-09-16T09:30:40.106Z,375
2016-09-16T09:31:40.101Z,370
2016-09-16T09:32:40.114Z,370
2016-09-16T09:33:40.106Z,360
2016-09-16T09:34:40.110Z,340
2016-09-16T09:35:40.102Z,325
2016-09-16T09:36:40.121Z,320
2016-09-16T09:37:40.113Z,320
2016-09-16T09:38:40.120Z,315
2016-09-16T09:39:40.132Z,320
2016-09-16T09:40:40.108Z,325
2016-09-16T09:41:40.114Z,325
2016-09-16T09:42:40.120Z,335
2016-09-16T09:43:40.129Z,340
2016-09-16T09:44:40.117Z,350
2016-09-16T09:45:40.114Z,360
2016-09-16T09:46:40.125Z,365
2016-09-16T09:47:40.137Z,375
2016-09-16T09:48:40.138Z,375
2016-09-16T09:49:40.125Z,380
2016-09-16T09:50:40.118Z,380
2016-09-16T09:51:40.180Z,375
2016-09-16T09:52:40.128Z,370
2016-09-16T09:53:40.113Z,365
2016-09-16T09:54:40.148Z,355
2016-09-16T09:55:40.122Z,340
2016-09-16T09:56:40.461Z,325
2016-09-16T09:57:40.142Z,310
2016-09-16T09:58:40.138Z,300
2016-09-16T09:59:40.458Z,290
2016-09-16T10:00:40.144Z,280
2016-09-16T10:01:40.160Z,275
2016-09-16T10:02:40.154Z,270
2016-09-16T10:03:40.164Z,260
2016-09-16T10:04:40.144Z,255
2016-09-16T10:05:40.141Z,250
2016-09-16T10:06:40.464Z,255
2016-09-16T10:07:40.148Z,255
2016-09-16T10:08:40.141Z,255
2016-09-16T10:09:40.152Z,275
2016-09-16T10:10:40.155Z,285
2016-09-16T10:11:40.148Z,305
2016-09-16T10:12:40.155Z,320
2016-09-16T10:13:40.159Z,335
2016-09-16T10:14:40.158Z,350
2016-09-16T10:15:40.183Z,360
2016-09-16T10:16:40.163Z,365
2016-09-16T10:17:40.162Z,370
2016-09-16T10:18:40.487Z,385
2016-09-16T10:19:40.173Z,395
2016-09-16T10:20:40.173Z,410
2016-09-16T10:21:40.165Z,410
2016-09-16T10:22:40.163Z,420
2016-09-16T10:23:40.480Z,420
2016-09-16T10:24:40.203Z,410
2016-09-16T10:25:40.179Z,395
2016-09-16T10:26:40.175Z,385
2016-09-16T10:27:40.487Z,390
2016-09-16T10:28:40.190Z,400
2016-09-16T10:29:40.183Z,405
2016-09-16T10:30:40.180Z,415
2016-09-16T10:31:40.199Z,420
2016-09-16T10:32:40.185Z,415
2016-09-16T10:33:40.187Z,405
2016-09-16T10:34:40.182Z,385
2016-09-16T10:35:40.189Z,360
2016-09-16T10:36:40.188Z,330
2016-09-16T10:37:40.213Z,310
2016-09-16T10:38:40.191Z,300
2016-09-16T10:39:40.211Z,290
2016-09-16T10:40:40.199Z,280
2016-09-16T10:41:40.204Z,275
2016-09-16T10:42:40.187Z,285
2016-09-16T10:43:40.203Z,295
2016-09-16T10:44:40.209Z,315
2016-09-16T10:45:40.279Z,330
2016-09-16T10:46:40.212Z,330
2016-09-16T10:47:40.204Z,345
2016-09-16T10:48:40.213Z,370
2016-09-16T10:49:40.202Z,385
2016-09-16T10:50:40.206Z,390
2016-09-16T10:51:40.228Z,385
2016-09-16T10:52:40.221Z,395
2016-09-16T10:53:40.215Z,435
2016-09-16T10:54:40.225Z,470
2016-09-16T10:55:40.223Z,500
2016-09-16T10:56:40.239Z,505
2016-09-16T10:57:40.241Z,485
2016-09-16T10:58:40.238Z,470
2016-09-16T10:59:40.241Z,460
2016-09-16T11:00:40.228Z,460
2016-09-16T11:01:40.228Z,440
2016-09-16T11:02:40.544Z,410
2016-09-16T11:03:40.232Z,395
2016-09-16T11:04:40.230Z,375
2016-09-16T11:05:40.250Z,350
2016-09-16T11:06:40.312Z,330
2016-09-16T11:07:40.244Z,330
2016-09-16T11:08:40.255Z,340
2016-09-16T11:09:40.597Z,350
2016-09-16T11:10:40.429Z,340
2016-09-16T11:11:40.273Z,330
2016-09-16T11:12:40.257Z,315
2016-09-16T11:13:40.264Z,310
2016-09-16T11:14:40.273Z,330
2016-09-16T11:15:40.593Z,350
2016-09-16T11:16:40.596Z,350
2016-09-16T11:17:40.276Z,350
2016-09-16T11:18:40.283Z,325
2016-09-16T11:19:40.293Z,300
2016-09-16T11:20:40.295Z,280
2016-09-16T11:21:40.278Z,260
2016-09-16T11:22:40.271Z,250
2016-09-16T11:23:40.289Z,255
2016-09-16T11:24:40.278Z,270
2016-09-16T11:25:40.626Z,285
2016-09-16T11:26:40.287Z,295
2016-09-16T11:27:40.304Z,305
2016-09-16T11:28:40.291Z,300
2016-09-16T11:29:40.311Z,295
2016-09-16T11:30:40.317Z,300
2016-09-16T11:31:40.511Z,300
2016-09-16T11:32:40.302Z,290
2016-09-16T11:33:40.299Z,295
2016-09-16T11:34:40.303Z,300
2016-09-16T11:35:40.309Z,305
2016-09-16T11:36:40.316Z,315
2016-09-16T11:37:40.330Z,320
2016-09-16T11:38:40.652Z,320
2016-09-16T11:39:40.339Z,310
2016-09-16T11:40:40.315Z,305
2016-09-16T11:41:40.322Z,315
2016-09-16T11:42:40.332Z,330
2016-09-16T11:43:40.325Z,350
2016-09-16T11:44:40.314Z,360
2016-09-16T11:45:40.637Z,350
2016-09-16T11:46:40.329Z,335
2016-09-16T11:47:40.327Z,315
2016-09-16T11:48:40.323Z,300
2016-09-16T11:49:55.372Z,290
2016-09-16T11:50:40.324Z,285
2016-09-16T11:51:40.329Z,285
2016-09-16T11:52:40.646Z,280
2016-09-16T11:53:40.341Z,280
2016-09-16T11:54:40.347Z,275
2016-09-16T11:55:40.667Z,275
2016-09-16T11:56:40.354Z,275
2016-09-16T11:57:40.365Z,275
2016-09-16T11:58:40.398Z,270
2016-09-16T11:59:40.340Z,260
2016-09-16T12:00:40.341Z,245
2016-09-16T12:01:40.358Z,230
2016-09-16T12:02:40.354Z,225
2016-09-16T12:03:40.362Z,220
2016-09-16T12:04:40.375Z,215
2016-09-16T12:05:40.360Z,215
2016-09-16T12:06:40.365Z,215
2016-09-16T12:07:40.359Z,220
2016-09-16T12:08:40.682Z,220
2016-09-16T12:09:40.373Z,220
2016-09-16T12:10:40.354Z,225
2016-09-16T12:11:40.387Z,230
2016-09-16T12:12:40.373Z,230
2016-09-16T12:13:40.381Z,225
2016-09-16T12:14:40.392Z,215
2016-09-16T12:15:40.389Z,205
2016-09-16T12:16:41.536Z,205
2016-09-16T12:17:40.589Z,205
2016-09-16T12:18:40.382Z,205
2016-09-16T12:19:40.381Z,205
2016-09-16T12:20:40.393Z,200
2016-09-16T12:21:40.397Z,200
2016-09-16T12:22:40.400Z,195
2016-09-16T12:23:40.418Z,195
2016-09-16T12:24:40.399Z,200
2016-09-16T12:25:40.403Z,210
2016-09-16T12:26:40.404Z,230
2016-09-16T12:27:40.397Z,245
2016-09-16T12:28:40.408Z,260
2016-09-16T12:29:40.398Z,260
2016-09-16T12:30:40.409Z,275
2016-09-16T12:31:40.403Z,250
2016-09-16T12:32:40.415Z,250
2016-09-16T12:33:40.424Z,255
2016-09-16T12:34:40.423Z,260
2016-09-16T12:35:40.393Z,275
2016-09-16T12:36:40.398Z,305
2016-09-16T12:37:40.407Z,320
2016-09-16T12:38:40.403Z,320
2016-09-16T12:39:40.723Z,275
2016-09-16T12:40:40.407Z,255
2016-09-16T12:41:40.709Z,240
2016-09-16T12:42:40.423Z,235
2016-09-16T12:43:40.407Z,230
2016-09-16T12:44:40.428Z,235
2016-09-16T12:45:40.419Z,235
2016-09-16T12:46:40.730Z,230
2016-09-16T12:47:40.424Z,235
2016-09-16T12:48:40.449Z,245
2016-09-16T12:49:40.432Z,260
2016-09-16T12:50:40.432Z,260
2016-09-16T12:51:40.497Z,265
2016-09-16T12:52:40.438Z,280
2016-09-16T12:53:40.460Z,285
2016-09-16T12:54:40.452Z,280
2016-09-16T12:55:40.451Z,270
2016-09-16T12:56:40.464Z,270
2016-09-16T12:57:40.444Z,255
2016-09-16T12:58:40.442Z,250
2016-09-16T12:59:40.761Z,240
2016-09-16T13:00:40.755Z,235
2016-09-16T13:01:40.459Z,245
2016-09-16T13:02:40.462Z,250
2016-09-16T13:03:40.452Z,255
2016-09-16T13:04:40.468Z,265
2016-09-16T13:05:40.457Z,285
2016-09-16T13:06:40.469Z,305
2016-09-16T13:07:40.787Z,320
2016-09-16T13:08:40.481Z,335
2016-09-16T13:09:40.454Z,330
2016-09-16T13:10:40.463Z,330
2016-09-16T13:11:40.790Z,335
2016-09-16T13:12:40.473Z,335
2016-09-16T13:13:40.472Z,325
2016-09-16T13:14:40.504Z,325
2016-09-16T13:15:40.786Z,320
2016-09-16T13:16:40.471Z,320
2016-09-16T13:17:40.480Z,325
2016-09-16T13:18:40.685Z,325
2016-09-16T13:19:40.475Z,320
2016-09-16T13:20:40.482Z,310
2016-09-16T13:21:40.477Z,300
2016-09-16T13:22:40.491Z,285
2016-09-16T13:23:41.127Z,280
2016-09-16T13:24:40.492Z,275
2016-09-16T13:25:40.495Z,275
2016-09-16T13:26:40.507Z,270
2016-09-16T13:27:40.491Z,260
2016-09-16T13:28:40.504Z,250
2016-09-16T13:29:40.491Z,245
2016-09-16T13:30:40.503Z,235
2016-09-16T13:31:40.504Z,235
2016-09-16T13:32:40.513Z,245
2016-09-16T13:33:40.502Z,255
2016-09-16T13:34:40.925Z,260
2016-09-16T13:35:41.168Z,260
2016-09-16T13:36:40.758Z,265
2016-09-16T13:37:40.943Z,275
2016-09-16T13:38:40.659Z,280
2016-09-16T13:39:40.516Z,295
2016-09-16T13:40:40.519Z,285
2016-09-16T13:41:40.536Z,275
2016-09-16T13:42:42.987Z,265
2016-09-16T13:43:40.887Z,250
2016-09-16T13:44:41.367Z,250
2016-09-16T13:45:56.841Z,240
2016-09-16T13:46:40.785Z,235
2016-09-16T13:47:40.677Z,235
2016-09-16T13:48:40.530Z,240
2016-09-16T13:49:40.530Z,245
2016-09-16T13:50:40.539Z,245
2016-09-16T13:51:40.609Z,245
2016-09-16T13:52:40.540Z,245
2016-09-16T13:53:40.551Z,250
2016-09-16T13:54:40.562Z,250
2016-09-16T13:55:40.541Z,240
2016-09-16T13:56:40.558Z,230
2016-09-16T13:57:40.559Z,225
2016-09-16T13:58:40.556Z,220
2016-09-16T13:59:40.539Z,215
2016-09-16T14:00:40.561Z,210
2016-09-16T14:01:40.898Z,200
2016-09-16T14:02:40.562Z,200
2016-09-16T14:03:40.562Z,195
2016-09-16T14:04:40.565Z,190
2016-09-16T14:05:40.580Z,185
2016-09-16T14:06:40.560Z,185
2016-09-16T14:07:40.878Z,190
2016-09-16T14:08:40.571Z,200
2016-09-16T14:09:40.572Z,210